Newfoundland, Pennsylvania
Current Conditions -  °F | °C
As of 6:53 PM on Monday 24 Nov 2014 (Local Time) from KMPO Reporting Station
Clear Clear  
Wind Chill: 57°   Ceiling: Unl
Heat Index: 57°   Visibility: 10mi
Dew Point: 51°   Wind: 18mph
Humidity: 81%   Direction: 200°SSW
Pressure: 29.65"   Gusts: 30mph
Location:  41.31°N, 75.32°W
Report Text: KMPO 242353Z AUTO 20016G26KT 10SM CLR 14/11 A2965 RMK AO2 PK WND 22026/2341 SLP036 T01390106 10172 20139 51024
Loading
Personal Weather Stations






























Interactive Weather Map New forecast layout! Learn more

10-Day Weather Forecast

Advertisements
Track Severe Weather on mobile